sensor_id;sensor_type;location;lat;lon;timestamp;P1;durP1;ratioP1;P2;durP2;ratioP2
5811;SDS011;2932;52.400;9.558;2024-02-16T00:01:13;2.13;;;1.20;;
5811;SDS011;2932;52.400;9.558;2024-02-16T00:03:39;4.47;;;1.40;;
5811;SDS011;2932;52.400;9.558;2024-02-16T00:06:04;2.33;;;1.30;;
5811;SDS011;2932;52.400;9.558;2024-02-16T00:08:30;2.63;;;1.20;;
5811;SDS011;2932;52.400;9.558;2024-02-16T00:10:55;2.20;;;1.43;;
5811;SDS011;2932;52.400;9.558;2024-02-16T00:13:21;2.90;;;1.60;;
5811;SDS011;2932;52.400;9.558;2024-02-16T00:15:47;2.17;;;1.30;;
5811;SDS011;2932;52.400;9.558;2024-02-16T00:18:12;2.53;;;1.57;;
5811;SDS011;2932;52.400;9.558;2024-02-16T00:20:38;2.50;;;1.33;;
5811;SDS011;2932;52.400;9.558;2024-02-16T00:23:03;2.23;;;1.50;;
5811;SDS011;2932;52.400;9.558;2024-02-16T00:25:29;1.60;;;1.27;;
5811;SDS011;2932;52.400;9.558;2024-02-16T00:27:54;3.53;;;1.77;;
5811;SDS011;2932;52.400;9.558;2024-02-16T00:30:20;2.47;;;1.30;;
5811;SDS011;2932;52.400;9.558;2024-02-16T00:32:45;3.50;;;1.50;;
5811;SDS011;2932;52.400;9.558;2024-02-16T00:35:11;2.03;;;1.10;;
5811;SDS011;2932;52.400;9.558;2024-02-16T00:37:36;2.30;;;1.37;;
5811;SDS011;2932;52.400;9.558;2024-02-16T00:40:03;3.08;;;1.30;;
5811;SDS011;2932;52.400;9.558;2024-02-16T00:42:29;2.73;;;1.70;;
5811;SDS011;2932;52.400;9.558;2024-02-16T00:44:56;2.13;;;1.50;;
5811;SDS011;2932;52.400;9.558;2024-02-16T00:47:21;2.90;;;1.60;;
5811;SDS011;2932;52.400;9.558;2024-02-16T00:49:48;2.77;;;1.63;;
5811;SDS011;2932;52.400;9.558;2024-02-16T00:52:14;5.47;;;1.80;;
5811;SDS011;2932;52.400;9.558;2024-02-16T00:54:39;2.63;;;1.30;;
5811;SDS011;2932;52.400;9.558;2024-02-16T00:57:04;2.10;;;1.37;;
5811;SDS011;2932;52.400;9.558;2024-02-16T00:59:29;3.97;;;1.47;;
5811;SDS011;2932;52.400;9.558;2024-02-16T01:01:55;3.33;;;1.60;;
5811;SDS011;2932;52.400;9.558;2024-02-16T01:04:20;2.00;;;1.50;;
5811;SDS011;2932;52.400;9.558;2024-02-16T01:06:46;2.10;;;1.50;;
5811;SDS011;2932;52.400;9.558;2024-02-16T01:09:11;2.57;;;1.43;;
5811;SDS011;2932;52.400;9.558;2024-02-16T01:11:38;3.83;;;1.70;;
5811;SDS011;2932;52.400;9.558;2024-02-16T01:14:05;2.07;;;1.70;;
5811;SDS011;2932;52.400;9.558;2024-02-16T01:16:30;2.23;;;1.50;;
5811;SDS011;2932;52.400;9.558;2024-02-16T01:18:56;3.63;;;1.80;;
5811;SDS011;2932;52.400;9.558;2024-02-16T01:21:23;3.53;;;1.30;;
5811;SDS011;2932;52.400;9.558;2024-02-16T01:23:49;3.77;;;1.50;;
5811;SDS011;2932;52.400;9.558;2024-02-16T01:26:14;4.40;;;1.63;;
5811;SDS011;2932;52.400;9.558;2024-02-16T01:28:40;2.40;;;1.60;;
5811;SDS011;2932;52.400;9.558;2024-02-16T01:31:05;2.63;;;1.80;;
5811;SDS011;2932;52.400;9.558;2024-02-16T01:33:30;3.23;;;1.60;;
5811;SDS011;2932;52.400;9.558;2024-02-16T01:35:59;3.50;;;1.43;;
5811;SDS011;2932;52.400;9.558;2024-02-16T01:38:24;5.63;;;1.50;;
5811;SDS011;2932;52.400;9.558;2024-02-16T01:40:50;2.87;;;1.57;;
5811;SDS011;2932;52.400;9.558;2024-02-16T01:43:18;4.40;;;1.50;;
5811;SDS011;2932;52.400;9.558;2024-02-16T01:45:44;2.97;;;1.50;;
5811;SDS011;2932;52.400;9.558;2024-02-16T01:48:10;2.70;;;1.43;;
5811;SDS011;2932;52.400;9.558;2024-02-16T01:50:36;3.67;;;1.40;;
5811;SDS011;2932;52.400;9.558;2024-02-16T01:53:01;2.70;;;1.57;;
5811;SDS011;2932;52.400;9.558;2024-02-16T01:55:26;4.20;;;1.83;;
5811;SDS011;2932;52.400;9.558;2024-02-16T01:57:52;3.07;;;1.67;;
5811;SDS011;2932;52.400;9.558;2024-02-16T02:00:17;1.57;;;1.30;;
5811;SDS011;2932;52.400;9.558;2024-02-16T02:02:46;3.30;;;1.30;;
5811;SDS011;2932;52.400;9.558;2024-02-16T02:05:12;2.73;;;1.70;;
5811;SDS011;2932;52.400;9.558;2024-02-16T02:07:38;4.87;;;1.67;;
5811;SDS011;2932;52.400;9.558;2024-02-16T02:10:03;2.30;;;1.20;;
5811;SDS011;2932;52.400;9.558;2024-02-16T02:12:29;4.47;;;1.50;;
5811;SDS011;2932;52.400;9.558;2024-02-16T02:14:54;2.20;;;1.23;;
5811;SDS011;2932;52.400;9.558;2024-02-16T02:17:20;2.60;;;1.30;;
5811;SDS011;2932;52.400;9.558;2024-02-16T02:19:45;2.57;;;1.40;;
5811;SDS011;2932;52.400;9.558;2024-02-16T02:22:15;2.87;;;1.40;;
5811;SDS011;2932;52.400;9.558;2024-02-16T02:24:42;3.33;;;1.30;;
5811;SDS011;2932;52.400;9.558;2024-02-16T02:27:08;2.07;;;1.20;;
5811;SDS011;2932;52.400;9.558;2024-02-16T02:29:34;1.67;;;1.20;;
5811;SDS011;2932;52.400;9.558;2024-02-16T02:31:59;2.80;;;1.30;;
5811;SDS011;2932;52.400;9.558;2024-02-16T02:34:25;4.63;;;1.67;;
5811;SDS011;2932;52.400;9.558;2024-02-16T02:36:50;3.43;;;1.60;;
5811;SDS011;2932;52.400;9.558;2024-02-16T02:39:16;1.63;;;1.30;;
5811;SDS011;2932;52.400;9.558;2024-02-16T02:41:41;3.13;;;1.23;;
5811;SDS011;2932;52.400;9.558;2024-02-16T02:44:06;2.90;;;1.57;;
5811;SDS011;2932;52.400;9.558;2024-02-16T02:46:32;2.93;;;1.73;;
5811;SDS011;2932;52.400;9.558;2024-02-16T02:48:57;2.63;;;1.60;;
5811;SDS011;2932;52.400;9.558;2024-02-16T02:51:22;3.97;;;1.67;;
5811;SDS011;2932;52.400;9.558;2024-02-16T02:53:48;3.13;;;1.70;;
5811;SDS011;2932;52.400;9.558;2024-02-16T02:56:14;5.53;;;1.40;;
5811;SDS011;2932;52.400;9.558;2024-02-16T02:58:39;3.47;;;1.53;;
5811;SDS011;2932;52.400;9.558;2024-02-16T03:01:04;5.20;;;1.50;;
5811;SDS011;2932;52.400;9.558;2024-02-16T03:03:32;2.80;;;1.57;;
5811;SDS011;2932;52.400;9.558;2024-02-16T03:05:58;1.90;;;1.20;;
5811;SDS011;2932;52.400;9.558;2024-02-16T03:08:24;4.33;;;1.83;;
5811;SDS011;2932;52.400;9.558;2024-02-16T03:10:50;2.13;;;1.20;;
5811;SDS011;2932;52.400;9.558;2024-02-16T03:13:15;2.63;;;1.30;;
5811;SDS011;2932;52.400;9.558;2024-02-16T03:15:43;1.83;;;1.00;;
5811;SDS011;2932;52.400;9.558;2024-02-16T03:18:08;2.67;;;1.10;;
5811;SDS011;2932;52.400;9.558;2024-02-16T03:20:37;2.00;;;1.27;;
5811;SDS011;2932;52.400;9.558;2024-02-16T03:23:02;3.13;;;1.00;;
5811;SDS011;2932;52.400;9.558;2024-02-16T03:25:28;4.27;;;1.27;;
5811;SDS011;2932;52.400;9.558;2024-02-16T03:27:54;2.33;;;1.20;;
5811;SDS011;2932;52.400;9.558;2024-02-16T03:30:19;5.10;;;1.30;;
5811;SDS011;2932;52.400;9.558;2024-02-16T03:32:51;1.50;;;1.10;;
5811;SDS011;2932;52.400;9.558;2024-02-16T03:35:17;2.10;;;1.00;;
5811;SDS011;2932;52.400;9.558;2024-02-16T03:37:43;2.37;;;1.40;;
5811;SDS011;2932;52.400;9.558;2024-02-16T03:40:09;1.00;;;0.90;;
5811;SDS011;2932;52.400;9.558;2024-02-16T03:42:36;1.03;;;1.00;;
5811;SDS011;2932;52.400;9.558;2024-02-16T03:45:02;3.20;;;1.10;;
5811;SDS011;2932;52.400;9.558;2024-02-16T03:47:27;2.77;;;1.00;;
5811;SDS011;2932;52.400;9.558;2024-02-16T03:49:53;2.17;;;1.10;;
5811;SDS011;2932;52.400;9.558;2024-02-16T03:52:18;3.10;;;1.17;;
5811;SDS011;2932;52.400;9.558;2024-02-16T03:54:43;2.40;;;1.43;;
5811;SDS011;2932;52.400;9.558;2024-02-16T03:57:12;1.63;;;0.93;;
5811;SDS011;2932;52.400;9.558;2024-02-16T03:59:38;1.57;;;1.20;;
5811;SDS011;2932;52.400;9.558;2024-02-16T04:02:03;3.47;;;1.20;;
5811;SDS011;2932;52.400;9.558;2024-02-16T04:04:28;1.37;;;1.10;;
5811;SDS011;2932;52.400;9.558;2024-02-16T04:06:53;1.33;;;1.10;;
5811;SDS011;2932;52.400;9.558;2024-02-16T04:09:19;2.13;;;1.20;;
5811;SDS011;2932;52.400;9.558;2024-02-16T04:11:47;2.43;;;1.17;;
5811;SDS011;2932;52.400;9.558;2024-02-16T04:14:12;2.03;;;1.10;;
5811;SDS011;2932;52.400;9.558;2024-02-16T04:16:38;4.37;;;1.30;;
5811;SDS011;2932;52.400;9.558;2024-02-16T04:19:03;3.30;;;1.20;;
5811;SDS011;2932;52.400;9.558;2024-02-16T04:21:29;1.63;;;1.13;;
5811;SDS011;2932;52.400;9.558;2024-02-16T04:23:54;4.83;;;1.93;;
5811;SDS011;2932;52.400;9.558;2024-02-16T04:26:19;1.40;;;1.00;;
5811;SDS011;2932;52.400;9.558;2024-02-16T04:28:45;3.03;;;1.10;;
5811;SDS011;2932;52.400;9.558;2024-02-16T04:31:10;1.30;;;1.17;;
5811;SDS011;2932;52.400;9.558;2024-02-16T04:33:36;3.50;;;1.10;;
5811;SDS011;2932;52.400;9.558;2024-02-16T04:36:01;3.43;;;1.10;;
5811;SDS011;2932;52.400;9.558;2024-02-16T04:38:26;1.43;;;1.00;;
5811;SDS011;2932;52.400;9.558;2024-02-16T04:40:51;1.57;;;0.93;;
5811;SDS011;2932;52.400;9.558;2024-02-16T04:43:17;1.67;;;1.07;;
5811;SDS011;2932;52.400;9.558;2024-02-16T04:45:42;3.03;;;1.00;;
5811;SDS011;2932;52.400;9.558;2024-02-16T04:48:08;2.00;;;1.23;;
5811;SDS011;2932;52.400;9.558;2024-02-16T04:50:34;2.80;;;1.30;;
5811;SDS011;2932;52.400;9.558;2024-02-16T04:53:00;1.37;;;1.00;;
5811;SDS011;2932;52.400;9.558;2024-02-16T04:55:29;2.53;;;0.87;;
5811;SDS011;2932;52.400;9.558;2024-02-16T04:57:56;1.43;;;1.03;;
5811;SDS011;2932;52.400;9.558;2024-02-16T05:00:21;2.80;;;1.00;;
5811;SDS011;2932;52.400;9.558;2024-02-16T05:02:47;2.57;;;1.00;;
5811;SDS011;2932;52.400;9.558;2024-02-16T05:05:12;4.70;;;1.10;;
5811;SDS011;2932;52.400;9.558;2024-02-16T05:07:38;3.53;;;1.37;;
5811;SDS011;2932;52.400;9.558;2024-02-16T05:10:07;2.50;;;1.43;;
5811;SDS011;2932;52.400;9.558;2024-02-16T05:12:33;1.33;;;1.00;;
5811;SDS011;2932;52.400;9.558;2024-02-16T05:14:59;1.63;;;1.07;;
5811;SDS011;2932;52.400;9.558;2024-02-16T05:17:24;1.10;;;0.97;;
5811;SDS011;2932;52.400;9.558;2024-02-16T05:19:50;1.90;;;1.13;;
5811;SDS011;2932;52.400;9.558;2024-02-16T05:22:15;3.03;;;1.23;;
5811;SDS011;2932;52.400;9.558;2024-02-16T05:24:42;1.50;;;1.00;;
5811;SDS011;2932;52.400;9.558;2024-02-16T05:27:07;1.27;;;0.93;;
5811;SDS011;2932;52.400;9.558;2024-02-16T05:29:32;2.53;;;1.07;;
5811;SDS011;2932;52.400;9.558;2024-02-16T05:31:58;1.53;;;1.00;;
5811;SDS011;2932;52.400;9.558;2024-02-16T05:34:23;2.07;;;1.10;;
5811;SDS011;2932;52.400;9.558;2024-02-16T05:36:49;3.33;;;1.47;;
5811;SDS011;2932;52.400;9.558;2024-02-16T05:39:15;4.23;;;1.20;;
5811;SDS011;2932;52.400;9.558;2024-02-16T05:41:51;1.23;;;1.00;;
5811;SDS011;2932;52.400;9.558;2024-02-16T05:44:18;2.60;;;0.97;;
5811;SDS011;2932;52.400;9.558;2024-02-16T05:46:44;1.10;;;1.00;;
5811;SDS011;2932;52.400;9.558;2024-02-16T05:49:09;3.03;;;1.27;;
5811;SDS011;2932;52.400;9.558;2024-02-16T05:51:35;2.63;;;1.17;;
5811;SDS011;2932;52.400;9.558;2024-02-16T05:54:07;1.47;;;0.93;;
5811;SDS011;2932;52.400;9.558;2024-02-16T05:56:36;3.33;;;1.20;;
5811;SDS011;2932;52.400;9.558;2024-02-16T05:59:04;1.23;;;1.10;;
5811;SDS011;2932;52.400;9.558;2024-02-16T06:01:30;2.53;;;1.47;;
5811;SDS011;2932;52.400;9.558;2024-02-16T06:03:56;4.43;;;1.70;;
5811;SDS011;2932;52.400;9.558;2024-02-16T06:06:21;3.70;;;2.70;;
5811;SDS011;2932;52.400;9.558;2024-02-16T06:08:46;3.73;;;1.80;;
5811;SDS011;2932;52.400;9.558;2024-02-16T06:11:11;4.03;;;1.73;;
5811;SDS011;2932;52.400;9.558;2024-02-16T06:13:37;2.10;;;1.40;;
5811;SDS011;2932;52.400;9.558;2024-02-16T06:16:04;3.27;;;1.23;;
5811;SDS011;2932;52.400;9.558;2024-02-16T06:18:33;2.73;;;0.90;;
5811;SDS011;2932;52.400;9.558;2024-02-16T06:20:59;2.40;;;1.13;;
5811;SDS011;2932;52.400;9.558;2024-02-16T06:23:24;2.13;;;1.20;;
5811;SDS011;2932;52.400;9.558;2024-02-16T06:25:50;4.97;;;1.40;;
5811;SDS011;2932;52.400;9.558;2024-02-16T06:28:15;2.53;;;1.53;;
5811;SDS011;2932;52.400;9.558;2024-02-16T06:30:40;1.73;;;1.40;;
5811;SDS011;2932;52.400;9.558;2024-02-16T06:33:06;1.90;;;1.20;;
5811;SDS011;2932;52.400;9.558;2024-02-16T06:35:31;3.33;;;1.20;;
5811;SDS011;2932;52.400;9.558;2024-02-16T06:37:57;3.10;;;1.27;;
5811;SDS011;2932;52.400;9.558;2024-02-16T06:40:22;1.43;;;0.90;;
5811;SDS011;2932;52.400;9.558;2024-02-16T06:42:48;1.60;;;1.07;;
5811;SDS011;2932;52.400;9.558;2024-02-16T06:45:13;2.67;;;1.43;;
5811;SDS011;2932;52.400;9.558;2024-02-16T06:47:39;1.93;;;1.00;;
5811;SDS011;2932;52.400;9.558;2024-02-16T06:50:04;1.93;;;1.10;;
5811;SDS011;2932;52.400;9.558;2024-02-16T06:52:30;4.17;;;1.27;;
5811;SDS011;2932;52.400;9.558;2024-02-16T06:54:55;1.57;;;1.20;;
5811;SDS011;2932;52.400;9.558;2024-02-16T06:57:20;1.43;;;1.10;;
5811;SDS011;2932;52.400;9.558;2024-02-16T06:59:46;3.63;;;1.20;;
5811;SDS011;2932;52.400;9.558;2024-02-16T07:02:11;3.83;;;1.30;;
5811;SDS011;2932;52.400;9.558;2024-02-16T07:04:41;1.97;;;1.63;;
5811;SDS011;2932;52.400;9.558;2024-02-16T07:07:06;2.47;;;1.17;;
5811;SDS011;2932;52.400;9.558;2024-02-16T07:09:31;2.70;;;1.50;;
5811;SDS011;2932;52.400;9.558;2024-02-16T07:11:57;2.93;;;1.33;;
5811;SDS011;2932;52.400;9.558;2024-02-16T07:14:23;3.77;;;1.23;;
5811;SDS011;2932;52.400;9.558;2024-02-16T07:16:49;3.63;;;1.40;;
5811;SDS011;2932;52.400;9.558;2024-02-16T07:19:14;4.37;;;1.43;;
5811;SDS011;2932;52.400;9.558;2024-02-16T07:21:40;2.40;;;1.20;;
5811;SDS011;2932;52.400;9.558;2024-02-16T07:24:05;2.73;;;1.40;;
5811;SDS011;2932;52.400;9.558;2024-02-16T07:26:31;4.13;;;1.33;;
5811;SDS011;2932;52.400;9.558;2024-02-16T07:28:56;1.80;;;1.17;;
5811;SDS011;2932;52.400;9.558;2024-02-16T07:31:21;1.43;;;1.20;;
5811;SDS011;2932;52.400;9.558;2024-02-16T07:33:47;4.83;;;1.30;;
5811;SDS011;2932;52.400;9.558;2024-02-16T07:36:12;2.10;;;1.40;;
5811;SDS011;2932;52.400;9.558;2024-02-16T07:38:38;2.67;;;1.40;;
5811;SDS011;2932;52.400;9.558;2024-02-16T07:41:04;2.77;;;1.27;;
5811;SDS011;2932;52.400;9.558;2024-02-16T07:43:30;2.77;;;1.30;;
5811;SDS011;2932;52.400;9.558;2024-02-16T07:45:56;2.70;;;1.57;;
5811;SDS011;2932;52.400;9.558;2024-02-16T07:48:22;3.57;;;1.17;;
5811;SDS011;2932;52.400;9.558;2024-02-16T07:50:47;3.30;;;1.40;;
5811;SDS011;2932;52.400;9.558;2024-02-16T07:53:15;2.27;;;1.30;;
5811;SDS011;2932;52.400;9.558;2024-02-16T07:55:41;2.73;;;1.37;;
5811;SDS011;2932;52.400;9.558;2024-02-16T07:58:06;1.70;;;1.60;;
5811;SDS011;2932;52.400;9.558;2024-02-16T08:00:32;3.13;;;1.40;;
5811;SDS011;2932;52.400;9.558;2024-02-16T08:02:57;2.93;;;1.40;;
5811;SDS011;2932;52.400;9.558;2024-02-16T08:05:22;4.47;;;1.50;;
5811;SDS011;2932;52.400;9.558;2024-02-16T08:07:49;1.30;;;1.20;;
5811;SDS011;2932;52.400;9.558;2024-02-16T08:10:14;2.80;;;1.20;;
5811;SDS011;2932;52.400;9.558;2024-02-16T08:12:40;2.93;;;1.23;;
5811;SDS011;2932;52.400;9.558;2024-02-16T08:15:05;3.33;;;1.63;;
5811;SDS011;2932;52.400;9.558;2024-02-16T08:17:35;2.70;;;1.20;;
5811;SDS011;2932;52.400;9.558;2024-02-16T08:20:01;2.75;;;1.48;;
5811;SDS011;2932;52.400;9.558;2024-02-16T08:22:26;3.70;;;1.33;;
5811;SDS011;2932;52.400;9.558;2024-02-16T08:24:51;4.70;;;1.63;;
5811;SDS011;2932;52.400;9.558;2024-02-16T08:27:17;1.80;;;1.10;;
5811;SDS011;2932;52.400;9.558;2024-02-16T08:29:42;1.53;;;1.10;;
5811;SDS011;2932;52.400;9.558;2024-02-16T08:32:08;2.67;;;1.43;;
5811;SDS011;2932;52.400;9.558;2024-02-16T08:34:34;2.37;;;1.30;;
5811;SDS011;2932;52.400;9.558;2024-02-16T08:37:02;3.17;;;1.37;;
5811;SDS011;2932;52.400;9.558;2024-02-16T08:39:28;3.27;;;1.40;;
5811;SDS011;2932;52.400;9.558;2024-02-16T08:41:54;2.83;;;1.23;;
5811;SDS011;2932;52.400;9.558;2024-02-16T08:44:20;3.53;;;1.13;;
5811;SDS011;2932;52.400;9.558;2024-02-16T08:46:45;4.50;;;1.80;;
5811;SDS011;2932;52.400;9.558;2024-02-16T08:49:14;3.43;;;1.63;;
5811;SDS011;2932;52.400;9.558;2024-02-16T08:51:40;5.13;;;1.80;;
5811;SDS011;2932;52.400;9.558;2024-02-16T08:54:05;4.63;;;1.20;;
5811;SDS011;2932;52.400;9.558;2024-02-16T08:56:31;2.80;;;1.10;;
5811;SDS011;2932;52.400;9.558;2024-02-16T08:58:57;3.20;;;1.52;;
5811;SDS011;2932;52.400;9.558;2024-02-16T09:01:32;1.75;;;1.10;;
5811;SDS011;2932;52.400;9.558;2024-02-16T09:03:58;4.05;;;1.50;;
5811;SDS011;2932;52.400;9.558;2024-02-16T09:06:24;2.17;;;1.37;;
5811;SDS011;2932;52.400;9.558;2024-02-16T09:08:49;3.25;;;1.40;;
5811;SDS011;2932;52.400;9.558;2024-02-16T09:11:14;2.22;;;1.13;;
5811;SDS011;2932;52.400;9.558;2024-02-16T09:13:40;1.40;;;1.30;;
5811;SDS011;2932;52.400;9.558;2024-02-16T09:16:06;1.17;;;0.95;;
5811;SDS011;2932;52.400;9.558;2024-02-16T09:18:32;4.07;;;1.25;;
5811;SDS011;2932;52.400;9.558;2024-02-16T09:20:57;2.65;;;1.40;;
5811;SDS011;2932;52.400;9.558;2024-02-16T09:23:23;1.37;;;1.27;;
5811;SDS011;2932;52.400;9.558;2024-02-16T09:25:48;4.20;;;1.63;;
5811;SDS011;2932;52.400;9.558;2024-02-16T09:28:15;4.38;;;1.35;;
5811;SDS011;2932;52.400;9.558;2024-02-16T09:30:41;1.73;;;1.23;;
5811;SDS011;2932;52.400;9.558;2024-02-16T09:33:06;3.75;;;1.33;;
5811;SDS011;2932;52.400;9.558;2024-02-16T09:35:34;2.97;;;1.50;;
5811;SDS011;2932;52.400;9.558;2024-02-16T09:38:00;2.23;;;1.30;;
5811;SDS011;2932;52.400;9.558;2024-02-16T09:40:25;2.70;;;1.50;;
5811;SDS011;2932;52.400;9.558;2024-02-16T09:42:51;1.60;;;1.15;;
5811;SDS011;2932;52.400;9.558;2024-02-16T09:45:16;2.22;;;1.25;;
5811;SDS011;2932;52.400;9.558;2024-02-16T09:47:42;3.47;;;1.40;;
5811;SDS011;2932;52.400;9.558;2024-02-16T09:50:09;3.55;;;1.40;;
5811;SDS011;2932;52.400;9.558;2024-02-16T09:52:38;2.85;;;1.52;;
5811;SDS011;2932;52.400;9.558;2024-02-16T09:55:03;2.72;;;1.38;;
5811;SDS011;2932;52.400;9.558;2024-02-16T09:57:32;2.08;;;1.52;;
5811;SDS011;2932;52.400;9.558;2024-02-16T09:59:57;2.17;;;1.40;;
5811;SDS011;2932;52.400;9.558;2024-02-16T10:02:24;2.58;;;1.13;;
5811;SDS011;2932;52.400;9.558;2024-02-16T10:04:49;2.88;;;1.40;;
5811;SDS011;2932;52.400;9.558;2024-02-16T10:07:15;3.03;;;1.60;;
5811;SDS011;2932;52.400;9.558;2024-02-16T10:09:40;3.65;;;1.20;;
5811;SDS011;2932;52.400;9.558;2024-02-16T10:12:06;3.33;;;1.50;;
5811;SDS011;2932;52.400;9.558;2024-02-16T10:14:32;4.43;;;1.33;;
5811;SDS011;2932;52.400;9.558;2024-02-16T10:17:04;2.25;;;1.60;;
5811;SDS011;2932;52.400;9.558;2024-02-16T10:19:31;1.42;;;1.33;;
5811;SDS011;2932;52.400;9.558;2024-02-16T10:22:10;5.10;;;1.40;;
5811;SDS011;2932;52.400;9.558;2024-02-16T10:24:37;3.22;;;1.48;;
5811;SDS011;2932;52.400;9.558;2024-02-16T10:27:13;3.78;;;1.40;;
5811;SDS011;2932;52.400;9.558;2024-02-16T10:29:39;1.67;;;1.20;;
5811;SDS011;2932;52.400;9.558;2024-02-16T10:32:09;3.55;;;1.63;;
5811;SDS011;2932;52.400;9.558;2024-02-16T10:34:35;3.90;;;2.00;;
5811;SDS011;2932;52.400;9.558;2024-02-16T10:37:04;3.63;;;1.83;;
5811;SDS011;2932;52.400;9.558;2024-02-16T10:39:30;3.30;;;1.52;;
5811;SDS011;2932;52.400;9.558;2024-02-16T10:41:57;1.20;;;1.10;;
5811;SDS011;2932;52.400;9.558;2024-02-16T10:44:24;3.20;;;1.48;;
5811;SDS011;2932;52.400;9.558;2024-02-16T10:46:52;2.63;;;1.25;;
5811;SDS011;2932;52.400;9.558;2024-02-16T10:49:18;1.98;;;1.30;;
5811;SDS011;2932;52.400;9.558;2024-02-16T10:51:48;1.45;;;1.20;;
5811;SDS011;2932;52.400;9.558;2024-02-16T10:54:18;3.67;;;1.50;;
5811;SDS011;2932;52.400;9.558;2024-02-16T10:56:46;3.13;;;1.30;;
5811;SDS011;2932;52.400;9.558;2024-02-16T10:59:12;4.20;;;1.90;;
5811;SDS011;2932;52.400;9.558;2024-02-16T11:01:38;2.40;;;1.40;;
5811;SDS011;2932;52.400;9.558;2024-02-16T11:04:04;1.73;;;1.33;;
5811;SDS011;2932;52.400;9.558;2024-02-16T11:06:43;3.22;;;1.40;;
5811;SDS011;2932;52.400;9.558;2024-02-16T11:09:27;1.80;;;1.38;;
5811;SDS011;2932;52.400;9.558;2024-02-16T11:11:54;1.80;;;1.13;;
5811;SDS011;2932;52.400;9.558;2024-02-16T11:14:40;2.97;;;1.33;;
5811;SDS011;2932;52.400;9.558;2024-02-16T11:17:10;5.90;;;1.60;;
5811;SDS011;2932;52.400;9.558;2024-02-16T11:19:36;4.07;;;1.63;;
5811;SDS011;2932;52.400;9.558;2024-02-16T11:22:03;2.60;;;1.40;;
5811;SDS011;2932;52.400;9.558;2024-02-16T11:24:35;2.05;;;1.30;;
5811;SDS011;2932;52.400;9.558;2024-02-16T11:27:02;5.53;;;1.50;;
5811;SDS011;2932;52.400;9.558;2024-02-16T11:29:31;3.00;;;1.65;;
5811;SDS011;2932;52.400;9.558;2024-02-16T11:31:58;3.53;;;1.52;;
5811;SDS011;2932;52.400;9.558;2024-02-16T11:34:25;1.83;;;1.42;;
5811;SDS011;2932;52.400;9.558;2024-02-16T11:36:54;2.33;;;1.52;;
5811;SDS011;2932;52.400;9.558;2024-02-16T11:39:21;3.10;;;1.27;;
5811;SDS011;2932;52.400;9.558;2024-02-16T11:41:47;2.85;;;1.55;;
5811;SDS011;2932;52.400;9.558;2024-02-16T11:44:15;4.32;;;1.83;;
5811;SDS011;2932;52.400;9.558;2024-02-16T11:46:41;2.53;;;1.63;;
5811;SDS011;2932;52.400;9.558;2024-02-16T11:49:07;2.92;;;1.50;;
5811;SDS011;2932;52.400;9.558;2024-02-16T11:51:33;2.83;;;1.65;;
5811;SDS011;2932;52.400;9.558;2024-02-16T11:53:59;4.10;;;1.45;;
5811;SDS011;2932;52.400;9.558;2024-02-16T11:56:25;3.97;;;1.48;;
5811;SDS011;2932;52.400;9.558;2024-02-16T11:58:51;1.92;;;1.30;;
5811;SDS011;2932;52.400;9.558;2024-02-16T12:01:20;3.90;;;1.52;;
5811;SDS011;2932;52.400;9.558;2024-02-16T12:03:46;6.63;;;1.60;;
5811;SDS011;2932;52.400;9.558;2024-02-16T12:06:19;2.40;;;1.50;;
5811;SDS011;2932;52.400;9.558;2024-02-16T12:08:46;2.63;;;1.60;;
5811;SDS011;2932;52.400;9.558;2024-02-16T12:11:11;3.40;;;1.67;;
5811;SDS011;2932;52.400;9.558;2024-02-16T12:13:37;2.50;;;1.50;;
5811;SDS011;2932;52.400;9.558;2024-02-16T12:16:02;3.47;;;1.83;;
5811;SDS011;2932;52.400;9.558;2024-02-16T12:18:28;2.13;;;1.40;;
5811;SDS011;2932;52.400;9.558;2024-02-16T12:21:03;3.47;;;1.83;;
5811;SDS011;2932;52.400;9.558;2024-02-16T12:23:30;2.90;;;1.92;;
5811;SDS011;2932;52.400;9.558;2024-02-16T12:25:57;4.25;;;1.50;;
5811;SDS011;2932;52.400;9.558;2024-02-16T12:28:26;4.30;;;1.58;;
5811;SDS011;2932;52.400;9.558;2024-02-16T12:30:53;2.58;;;1.60;;
5811;SDS011;2932;52.400;9.558;2024-02-16T12:33:20;2.42;;;1.90;;
5811;SDS011;2932;52.400;9.558;2024-02-16T12:35:49;3.55;;;1.65;;
5811;SDS011;2932;52.400;9.558;2024-02-16T12:38:14;4.10;;;1.92;;
5811;SDS011;2932;52.400;9.558;2024-02-16T12:40:42;3.38;;;1.65;;
5811;SDS011;2932;52.400;9.558;2024-02-16T12:43:08;4.10;;;1.90;;
5811;SDS011;2932;52.400;9.558;2024-02-16T12:45:36;3.67;;;1.85;;
5811;SDS011;2932;52.400;9.558;2024-02-16T12:48:01;3.78;;;1.90;;
5811;SDS011;2932;52.400;9.558;2024-02-16T12:50:26;3.95;;;1.73;;
5811;SDS011;2932;52.400;9.558;2024-02-16T12:52:52;3.80;;;1.80;;
5811;SDS011;2932;52.400;9.558;2024-02-16T12:55:17;6.65;;;2.40;;
5811;SDS011;2932;52.400;9.558;2024-02-16T12:57:42;1.90;;;1.58;;
5811;SDS011;2932;52.400;9.558;2024-02-16T13:00:08;3.15;;;2.10;;
5811;SDS011;2932;52.400;9.558;2024-02-16T13:02:34;5.72;;;2.28;;
5811;SDS011;2932;52.400;9.558;2024-02-16T13:04:59;3.95;;;1.90;;
5811;SDS011;2932;52.400;9.558;2024-02-16T13:07:24;4.97;;;2.08;;
5811;SDS011;2932;52.400;9.558;2024-02-16T13:09:50;5.05;;;2.20;;
5811;SDS011;2932;52.400;9.558;2024-02-16T13:12:16;6.13;;;2.30;;
5811;SDS011;2932;52.400;9.558;2024-02-16T13:14:42;4.05;;;2.08;;
5811;SDS011;2932;52.400;9.558;2024-02-16T13:17:07;3.00;;;1.98;;
5811;SDS011;2932;52.400;9.558;2024-02-16T13:19:33;5.18;;;2.40;;
5811;SDS011;2932;52.400;9.558;2024-02-16T13:21:58;4.28;;;2.10;;
5811;SDS011;2932;52.400;9.558;2024-02-16T13:24:23;5.82;;;2.10;;
5811;SDS011;2932;52.400;9.558;2024-02-16T13:26:49;5.60;;;2.35;;
5811;SDS011;2932;52.400;9.558;2024-02-16T13:29:15;4.95;;;2.97;;
5811;SDS011;2932;52.400;9.558;2024-02-16T13:31:40;3.58;;;2.08;;
5811;SDS011;2932;52.400;9.558;2024-02-16T13:34:07;3.70;;;1.77;;
5811;SDS011;2932;52.400;9.558;2024-02-16T13:36:32;4.38;;;1.95;;
5811;SDS011;2932;52.400;9.558;2024-02-16T13:38:58;4.28;;;2.03;;
5811;SDS011;2932;52.400;9.558;2024-02-16T13:41:23;4.82;;;2.38;;
5811;SDS011;2932;52.400;9.558;2024-02-16T13:43:50;6.72;;;2.53;;
5811;SDS011;2932;52.400;9.558;2024-02-16T13:46:16;4.13;;;2.20;;
5811;SDS011;2932;52.400;9.558;2024-02-16T13:48:42;4.40;;;2.40;;
5811;SDS011;2932;52.400;9.558;2024-02-16T13:51:08;4.28;;;2.08;;
5811;SDS011;2932;52.400;9.558;2024-02-16T13:53:34;4.95;;;2.35;;
5811;SDS011;2932;52.400;9.558;2024-02-16T13:56:00;4.78;;;2.33;;
5811;SDS011;2932;52.400;9.558;2024-02-16T13:58:29;4.93;;;2.38;;
5811;SDS011;2932;52.400;9.558;2024-02-16T14:00:55;5.25;;;1.95;;
5811;SDS011;2932;52.400;9.558;2024-02-16T14:03:21;3.72;;;2.20;;
5811;SDS011;2932;52.400;9.558;2024-02-16T14:05:46;5.20;;;2.47;;
5811;SDS011;2932;52.400;9.558;2024-02-16T14:08:12;4.95;;;2.53;;
5811;SDS011;2932;52.400;9.558;2024-02-16T14:10:38;6.75;;;2.30;;
5811;SDS011;2932;52.400;9.558;2024-02-16T14:13:03;4.47;;;2.25;;
5811;SDS011;2932;52.400;9.558;2024-02-16T14:15:29;10.02;;;2.78;;
5811;SDS011;2932;52.400;9.558;2024-02-16T14:17:54;6.25;;;2.50;;
5811;SDS011;2932;52.400;9.558;2024-02-16T14:20:20;4.05;;;2.22;;
5811;SDS011;2932;52.400;9.558;2024-02-16T14:22:48;5.68;;;2.33;;
5811;SDS011;2932;52.400;9.558;2024-02-16T14:25:14;5.22;;;2.60;;
5811;SDS011;2932;52.400;9.558;2024-02-16T14:27:39;6.22;;;2.92;;
5811;SDS011;2932;52.400;9.558;2024-02-16T14:30:06;6.65;;;2.90;;
5811;SDS011;2932;52.400;9.558;2024-02-16T14:32:32;4.68;;;2.85;;
5811;SDS011;2932;52.400;9.558;2024-02-16T14:34:58;5.50;;;3.10;;
5811;SDS011;2932;52.400;9.558;2024-02-16T14:37:24;6.47;;;3.13;;
5811;SDS011;2932;52.400;9.558;2024-02-16T14:39:51;6.57;;;2.92;;
5811;SDS011;2932;52.400;9.558;2024-02-16T14:42:21;10.15;;;3.70;;
5811;SDS011;2932;52.400;9.558;2024-02-16T14:44:47;7.30;;;3.65;;
5811;SDS011;2932;52.400;9.558;2024-02-16T14:47:12;4.40;;;3.35;;
5811;SDS011;2932;52.400;9.558;2024-02-16T14:49:40;6.22;;;3.38;;
5811;SDS011;2932;52.400;9.558;2024-02-16T14:52:05;6.18;;;3.63;;
5811;SDS011;2932;52.400;9.558;2024-02-16T14:54:32;4.78;;;3.65;;
5811;SDS011;2932;52.400;9.558;2024-02-16T14:56:57;9.83;;;4.40;;
5811;SDS011;2932;52.400;9.558;2024-02-16T14:59:22;8.18;;;4.60;;
5811;SDS011;2932;52.400;9.558;2024-02-16T15:01:49;5.80;;;4.20;;
5811;SDS011;2932;52.400;9.558;2024-02-16T15:04:14;8.43;;;5.03;;
5811;SDS011;2932;52.400;9.558;2024-02-16T15:06:39;20.60;;;5.93;;
5811;SDS011;2932;52.400;9.558;2024-02-16T15:09:07;6.40;;;5.18;;